createdAt,value
2018-09-12T00:04:52.090Z,101552.79
2018-09-12T00:09:46.754Z,101553.02
2018-09-12T00:14:41.322Z,101551.09
2018-09-12T00:19:35.842Z,101540.61
2018-09-12T00:24:30.516Z,101537.65
2018-09-12T00:29:25.212Z,101535.52
2018-09-12T00:34:20.117Z,101526.22
2018-09-12T00:39:15.333Z,101528.03
2018-09-12T00:44:10.405Z,101530.58
2018-09-12T00:49:07.122Z,101528.22
2018-09-12T00:54:02.191Z,101523.09
2018-09-12T00:58:56.975Z,101520.28
2018-09-12T01:03:52.112Z,101510.98
2018-09-12T01:08:47.004Z,101507.54
2018-09-12T01:13:42.057Z,101507.13
2018-09-12T01:18:38.004Z,101506.37
2018-09-12T01:23:33.048Z,101497.09
2018-09-12T01:28:27.958Z,101496.33
2018-09-12T01:33:23.106Z,101495.80
2018-09-12T01:38:17.707Z,101505.00
2018-09-12T01:43:12.892Z,101503.88
2018-09-12T01:48:07.410Z,101497.89
2018-09-12T01:53:02.011Z,101483.12
2018-09-12T01:57:56.827Z,101474.96
2018-09-12T02:02:51.466Z,101489.73
2018-09-12T02:07:46.442Z,101482.79
2018-09-12T02:12:41.269Z,101486.16
2018-09-12T02:17:36.522Z,101489.52
2018-09-12T02:22:31.363Z,101488.05
2018-09-12T02:27:26.090Z,101481.45
2018-09-12T02:32:21.701Z,101476.03
2018-09-12T02:37:16.713Z,101474.77
2018-09-12T02:42:12.084Z,101475.68
2018-09-12T02:47:10.938Z,101469.04
2018-09-12T02:52:06.269Z,101470.81
2018-09-12T02:57:01.068Z,101460.56
2018-09-12T03:01:55.908Z,101462.69
2018-09-12T03:06:51.070Z,101458.89
2018-09-12T03:11:45.682Z,101452.43
2018-09-12T03:16:40.674Z,101449.61
2018-09-12T03:21:36.069Z,101451.49
2018-09-12T03:26:30.635Z,101445.61
2018-09-12T03:31:26.709Z,101443.16
2018-09-12T03:36:21.619Z,101440.33
2018-09-12T03:41:16.637Z,101442.71
2018-09-12T03:46:11.370Z,101452.27
2018-09-12T03:51:06.472Z,101453.35
2018-09-12T03:56:01.138Z,101453.45
2018-09-12T04:00:55.639Z,101451.62
2018-09-12T04:05:50.276Z,101451.72
2018-09-12T04:10:44.784Z,101446.99
2018-09-12T04:15:39.372Z,101444.42
2018-09-12T04:20:34.062Z,101441.36
2018-09-12T04:25:28.540Z,101440.63
2018-09-12T04:30:23.081Z,101440.73
2018-09-12T04:35:17.720Z,101437.13
2018-09-12T04:40:13.128Z,101433.12
2018-09-12T04:45:07.858Z,101439.33
2018-09-12T04:50:02.369Z,101440.30
2018-09-12T04:54:57.046Z,101436.87
2018-09-12T04:59:51.519Z,101432.50
2018-09-12T05:04:46.319Z,101434.56
2018-09-12T05:09:40.790Z,101435.31
2018-09-12T05:14:35.298Z,101442.91
2018-09-12T05:19:29.776Z,101447.09
2018-09-12T05:24:24.556Z,101451.62
2018-09-12T05:29:19.042Z,101455.70
2018-09-12T05:34:13.762Z,101448.13
2018-09-12T05:39:10.832Z,101449.29
2018-09-12T05:44:05.545Z,101455.36
2018-09-12T05:49:00.023Z,101460.45
2018-09-12T05:53:54.485Z,101461.89
2018-09-12T05:58:48.961Z,101466.75
2018-09-12T06:03:43.733Z,101458.22
2018-09-12T06:08:38.597Z,101450.81
2018-09-12T06:13:33.402Z,101451.44
2018-09-12T06:18:28.227Z,101450.78
2018-09-12T06:23:22.997Z,101458.07
2018-09-12T06:28:18.160Z,101447.41
2018-09-12T06:33:12.722Z,101450.23
2018-09-12T06:38:07.575Z,101452.65
2018-09-12T06:43:02.222Z,101451.61
2018-09-12T06:47:57.196Z,101453.75
2018-09-12T06:52:52.063Z,101465.13
2018-09-12T06:57:47.088Z,101458.89
2018-09-12T07:02:42.094Z,101469.33
2018-09-12T07:07:37.358Z,101458.67
2018-09-12T07:12:32.274Z,101458.72
2018-09-12T07:17:27.184Z,101461.14
2018-09-12T07:22:22.177Z,101474.66
2018-09-12T07:27:17.126Z,101480.94
2018-09-12T07:32:11.892Z,101471.37
2018-09-12T07:37:07.031Z,101484.09
2018-09-12T07:42:01.950Z,101490.44
2018-09-12T07:46:56.761Z,101490.39
2018-09-12T07:51:51.512Z,101489.06
2018-09-12T07:56:46.278Z,101495.11
2018-09-12T08:01:41.204Z,101497.45
2018-09-12T08:06:35.991Z,101489.70
2018-09-12T08:11:30.736Z,101485.89
2018-09-12T08:16:25.556Z,101480.05
2018-09-12T08:21:20.631Z,101477.66
2018-09-12T08:26:16.354Z,101478.25
2018-09-12T08:31:11.272Z,101476.70
2018-09-12T08:36:06.116Z,101479.91
2018-09-12T08:41:00.876Z,101483.97
2018-09-12T08:45:55.641Z,101480.16
2018-09-12T08:50:51.359Z,101487.13
2018-09-12T08:55:46.694Z,101486.33
2018-09-12T09:00:41.608Z,101486.25
2018-09-12T09:05:36.872Z,101490.56
2018-09-12T09:10:31.707Z,101491.13
2018-09-12T09:15:27.536Z,101491.41
2018-09-12T09:20:22.376Z,101490.52
2018-09-12T09:25:17.275Z,101483.38
2018-09-12T09:30:12.038Z,101489.72
2018-09-12T09:35:07.463Z,101479.12
2018-09-12T09:40:02.519Z,101476.09
2018-09-12T09:44:57.573Z,101489.83
2018-09-12T09:49:57.115Z,101474.98
2018-09-12T09:54:51.897Z,101477.14
2018-09-12T09:59:47.044Z,101469.64
2018-09-12T10:04:46.992Z,101469.84
2018-09-12T10:09:41.965Z,101469.52
2018-09-12T10:14:36.860Z,101469.34
2018-09-12T10:19:31.709Z,101469.48
2018-09-12T10:24:26.679Z,101468.53
2018-09-12T10:29:21.565Z,101465.13
2018-09-12T10:34:16.319Z,101464.75
2018-09-12T10:39:12.992Z,101464.80
2018-09-12T10:44:07.859Z,101461.74
2018-09-12T10:49:02.723Z,101458.22
2018-09-12T10:53:57.477Z,101459.63
2018-09-12T10:58:52.311Z,101459.52
2018-09-12T11:03:47.242Z,101452.78
2018-09-12T11:08:41.988Z,101459.78
2018-09-12T11:13:36.931Z,101461.80
2018-09-12T11:18:31.693Z,101451.42
2018-09-12T11:23:26.430Z,101450.87
2018-09-12T11:28:21.247Z,101444.20
2018-09-12T11:33:16.007Z,101449.02
2018-09-12T11:38:10.796Z,101439.09
2018-09-12T11:43:05.970Z,101440.59
2018-09-12T11:48:00.733Z,101436.02
2018-09-12T11:52:55.543Z,101446.46
2018-09-12T11:57:50.297Z,101446.36
2018-09-12T12:02:45.089Z,101435.79
2018-09-12T12:07:39.985Z,101435.14
2018-09-12T12:12:34.734Z,101435.56
2018-09-12T12:17:29.516Z,101432.12
2018-09-12T12:22:24.244Z,101437.31
2018-09-12T12:27:19.040Z,101434.41
2018-09-12T12:32:13.768Z,101431.14
2018-09-12T12:37:08.554Z,101428.67
2018-09-12T12:42:03.289Z,101422.47
2018-09-12T12:46:58.072Z,101415.97
2018-09-12T12:51:53.092Z,101408.95
2018-09-12T12:56:47.906Z,101405.98
2018-09-12T13:01:42.677Z,101403.27
2018-09-12T13:11:31.355Z,101405.34
2018-09-12T13:16:26.143Z,101401.34
2018-09-12T13:21:21.066Z,101393.90
2018-09-12T13:26:15.982Z,101386.34
2018-09-12T13:31:10.862Z,101386.11
2018-09-12T13:36:05.690Z,101395.39
2018-09-12T13:41:00.525Z,101394.97
2018-09-12T13:45:55.493Z,101383.63
2018-09-12T13:50:50.229Z,101386.58
2018-09-12T13:55:44.959Z,101380.22
2018-09-12T14:00:39.732Z,101376.73
2018-09-12T14:05:34.423Z,101387.55
2018-09-12T14:10:29.252Z,101381.63
2018-09-12T14:15:23.990Z,101391.38
2018-09-12T14:20:18.795Z,101388.84
2018-09-12T14:25:14.091Z,101386.98
2018-09-12T14:30:09.076Z,101390.74
2018-09-12T14:35:04.123Z,101393.83
2018-09-12T14:39:59.355Z,101398.05
2018-09-12T14:44:54.135Z,101411.59
2018-09-12T14:49:49.058Z,101407.29
2018-09-12T14:54:44.155Z,101408.04
2018-09-12T14:59:38.854Z,101418.08
2018-09-12T15:04:33.429Z,101415.61
2018-09-12T15:09:28.075Z,101422.89
2018-09-12T15:14:22.840Z,101427.43
2018-09-12T15:19:17.357Z,101419.93
2018-09-12T15:24:12.567Z,101429.48
2018-09-12T15:29:07.212Z,101440.75
2018-09-12T15:34:01.674Z,101447.43
2018-09-12T15:38:56.227Z,101442.98
2018-09-12T15:43:50.997Z,101451.05
2018-09-12T15:48:45.483Z,101457.78
2018-09-12T15:53:40.537Z,101461.24
2018-09-12T15:58:35.042Z,101463.73
2018-09-12T16:03:29.567Z,101472.38
2018-09-12T16:08:24.391Z,101476.09
2018-09-12T16:13:19.695Z,101482.59
2018-09-12T16:18:14.399Z,101483.95
2018-09-12T16:23:09.394Z,101488.89
2018-09-12T16:28:04.075Z,101500.06
2018-09-12T16:32:58.931Z,101477.19
2018-09-12T16:37:53.498Z,101479.85
2018-09-12T16:42:48.089Z,101488.34
2018-09-12T16:47:42.668Z,101490.20
2018-09-12T16:52:37.928Z,101498.98
2018-09-12T16:57:32.504Z,101503.72
2018-09-12T17:02:28.296Z,101511.99
2018-09-12T17:07:23.179Z,101519.74
2018-09-12T17:12:17.666Z,101521.13
2018-09-12T17:17:12.181Z,101525.28
2018-09-12T17:22:06.956Z,101519.62
2018-09-12T17:27:01.495Z,101530.23
2018-09-12T17:31:56.087Z,101532.05
2018-09-12T17:36:51.534Z,101537.87
2018-09-12T17:41:46.662Z,101538.95
2018-09-12T17:46:41.853Z,101534.66
2018-09-12T17:51:36.677Z,101548.88
2018-09-12T17:56:32.254Z,101543.33
2018-09-12T18:01:28.303Z,101543.16
2018-09-12T18:06:23.013Z,101535.36
2018-09-12T18:11:18.263Z,101533.97
2018-09-12T18:16:13.276Z,101540.50
2018-09-12T18:21:08.732Z,101550.21
2018-09-12T18:26:04.131Z,101552.37
2018-09-12T18:31:00.592Z,101563.65
2018-09-12T18:35:55.565Z,101569.63
2018-09-12T18:40:50.925Z,101569.73
2018-09-12T18:45:46.010Z,101571.49
2018-09-12T18:50:42.629Z,101578.52
2018-09-12T18:55:37.545Z,101579.02
2018-09-12T19:00:33.405Z,101585.61
2018-09-12T19:05:29.356Z,101583.63
2018-09-12T19:10:23.876Z,101595.53
2018-09-12T19:15:19.993Z,101603.61
2018-09-12T19:20:14.616Z,101597.79
2018-09-12T19:25:09.879Z,101606.95
2018-09-12T19:30:04.770Z,101622.77
2018-09-12T19:35:01.449Z,101623.44
2018-09-12T19:39:56.425Z,101615.98
2018-09-12T19:44:52.582Z,101612.75
2018-09-12T19:49:47.894Z,101621.79
2018-09-12T19:54:42.493Z,101632.56
2018-09-12T19:59:38.806Z,101627.02
2018-09-12T20:04:33.612Z,101630.11
2018-09-12T20:09:29.375Z,101623.94
2018-09-12T20:14:24.180Z,101627.84
2018-09-12T20:19:19.467Z,101631.88
2018-09-12T20:24:15.754Z,101642.12
2018-09-12T20:29:12.365Z,101641.20
2018-09-12T20:34:08.472Z,101631.02
2018-09-12T20:39:04.334Z,101617.57
2018-09-12T20:44:00.892Z,101614.64
2018-09-12T20:48:55.448Z,101617.33
2018-09-12T20:53:50.342Z,101617.21
2018-09-12T20:58:45.642Z,101604.30
2018-09-12T21:03:40.972Z,101604.86
2018-09-12T21:08:36.557Z,101602.52
2018-09-12T21:13:32.694Z,101607.35
2018-09-12T21:18:27.902Z,101610.47
2018-09-12T21:23:23.626Z,101615.55
2018-09-12T21:28:19.350Z,101618.14
2018-09-12T21:33:16.092Z,101619.26
2018-09-12T21:38:11.486Z,101606.02
2018-09-12T21:43:06.630Z,101623.16
2018-09-12T21:48:01.758Z,101609.25
2018-09-12T21:52:57.358Z,101607.86
2018-09-12T21:57:52.916Z,101603.70
2018-09-12T22:02:48.510Z,101594.83
2018-09-12T22:07:44.695Z,101591.12
2018-09-12T22:12:39.574Z,101586.86
2018-09-12T22:17:34.235Z,101595.69
2018-09-12T22:22:28.754Z,101583.77
2018-09-12T22:27:23.242Z,101587.77
2018-09-12T22:32:17.730Z,101586.88
2018-09-12T22:37:12.245Z,101591.00
2018-09-12T22:42:06.952Z,101589.12
2018-09-12T22:47:01.444Z,101589.33
2018-09-12T22:51:55.886Z,101598.77
2018-09-12T22:56:50.375Z,101604.80
2018-09-12T23:01:45.119Z,101621.20
2018-09-12T23:06:39.667Z,101618.52
2018-09-12T23:11:34.122Z,101600.57
2018-09-12T23:16:28.672Z,101598.22
2018-09-12T23:21:23.390Z,101597.56
2018-09-12T23:26:18.097Z,101597.93
2018-09-12T23:31:12.604Z,101592.80
2018-09-12T23:36:07.423Z,101580.66
2018-09-12T23:41:01.968Z,101564.58
2018-09-12T23:45:56.603Z,101564.79
2018-09-12T23:50:51.097Z,101554.67
2018-09-12T23:55:45.755Z,101557.45
